Time;durP1;ratioP1;P1;durP2;ratioP2;P2;SDS_P1;SDS_P2;PMS_P1;PMS_P2;Temp;Humidity;BMP_temperature;BMP_pressure;BME280_temperature;BME280_humidity;BME280_pressure;Samples;Min_cycle;Max_cycle;Signal;HPM_P1;HPM_P2
2023/01/05 00:01:05;;;;;;;1.38;0.60;;;;;;;15.41;86.83;101874.53;4996574;28;20054;-70
2023/01/05 00:03:34;;;;;;;1.25;0.40;;;;;;;15.46;84.74;101874.38;4995918;28;20046;-70
2023/01/05 00:06:03;;;;;;;2.53;0.65;;;;;;;15.41;86.31;101880.06;4996610;28;20069;-70
2023/01/05 00:08:31;;;;;;;4.93;0.82;;;;;;;15.72;87.29;101878.16;4995258;28;20429;-69
2023/01/05 00:22:29;;;;;;;2.55;0.60;;;;;;;15.58;85.41;101871.88;4978590;28;20054;-70
2023/01/05 00:25:03;;;;;;;2.75;0.73;;;;;;;15.47;85.70;101870.50;4996613;28;20050;-70
2023/01/05 00:27:39;;;;;;;1.67;0.60;;;;;;;15.43;86.05;101871.44;4996064;28;20552;-70
2023/01/05 00:30:09;;;;;;;2.30;0.70;;;;;;;15.27;86.50;101870.19;4947167;28;20055;-70
2023/01/05 00:32:37;;;;;;;0.90;0.57;;;;;;;15.00;88.22;101878.63;4996290;28;20084;-70
2023/01/05 00:35:04;;;;;;;2.05;0.52;;;;;;;15.26;88.64;101876.84;4995329;28;20042;-69
2023/01/05 00:37:34;;;;;;;3.50;0.70;;;;;;;15.46;87.38;101873.59;4979020;28;20675;-69
2023/01/05 00:40:01;;;;;;;1.15;0.50;;;;;;;15.22;88.97;101871.09;4962803;28;20503;-70
2023/01/05 00:42:29;;;;;;;3.22;0.60;;;;;;;15.47;87.10;101872.44;4996085;28;20123;-69
2023/01/05 00:44:56;;;;;;;1.77;0.63;;;;;;;15.63;87.10;101874.50;4996009;28;20490;-69
2023/01/05 00:47:23;;;;;;;1.73;0.55;;;;;;;15.07;86.57;101877.03;4996096;28;20058;-70
2023/01/05 00:49:51;;;;;;;3.22;0.70;;;;;;;15.26;86.94;101874.06;4996331;28;20434;-71
2023/01/05 00:52:18;;;;;;;2.00;0.65;;;;;;;14.78;88.19;101886.94;4995150;28;20054;-69
2023/01/05 00:54:46;;;;;;;6.47;0.77;;;;;;;14.68;89.85;101889.94;4994905;28;20046;-70
2023/01/05 00:57:13;;;;;;;1.75;0.70;;;;;;;14.74;89.43;101885.91;4994968;28;20054;-69
2023/01/05 00:59:41;;;;;;;2.72;0.70;;;;;;;14.68;89.70;101887.16;4978600;28;20080;-69
2023/01/05 01:02:09;;;;;;;3.30;0.88;;;;;;;14.74;89.91;101883.13;4994463;28;20050;-71
2023/01/05 01:04:37;;;;;;;3.13;0.70;;;;;;;14.80;90.72;101890.22;4978559;28;20051;-70
2023/01/05 01:07:05;;;;;;;2.80;1.00;;;;;;;14.75;89.61;101882.81;4995744;28;20070;-69
2023/01/05 01:09:33;;;;;;;3.65;1.02;;;;;;;15.03;90.60;101880.78;4996010;28;20055;-69
2023/01/05 01:12:00;;;;;;;2.20;0.55;;;;;;;14.99;90.45;101877.81;4978301;28;20065;-70
2023/01/05 01:14:28;;;;;;;3.08;0.80;;;;;;;15.35;87.95;101874.94;5011054;28;20053;-69
2023/01/05 01:16:55;;;;;;;3.10;0.80;;;;;;;15.51;87.27;101879.00;5010488;28;20058;-70
2023/01/05 01:19:24;;;;;;;3.45;0.70;;;;;;;15.75;86.95;101871.13;4996158;28;20417;-70
2023/01/05 01:21:53;;;;;;;3.70;0.70;;;;;;;15.85;85.66;101865.25;4978286;28;20054;-69
2023/01/05 01:24:40;;;;;;;3.95;0.77;;;;;;;15.47;86.07;101864.94;4978799;28;20074;-70
2023/01/05 01:27:07;;;;;;;4.43;0.77;;;;;;;15.09;85.45;101866.47;4962672;28;20054;-70
2023/01/05 01:29:35;;;;;;;3.22;0.70;;;;;;;14.76;86.02;101861.44;4996119;28;20494;-70
2023/01/05 01:32:03;;;;;;;6.03;1.00;;;;;;;14.88;87.13;101861.72;4995303;28;20050;-70
2023/01/05 01:34:30;;;;;;;4.32;0.90;;;;;;;14.62;86.35;101873.44;4986148;28;20230;-69
2023/01/05 01:36:59;;;;;;;3.83;1.13;;;;;;;14.48;88.24;101867.09;4973335;28;20498;-70
2023/01/05 01:39:32;;;;;;;6.32;1.35;;;;;;;14.74;87.94;101877.59;4978370;28;20081;-70
2023/01/05 01:42:05;;;;;;;8.43;1.10;;;;;;;14.72;88.21;101868.75;4978575;28;20046;-70
2023/01/05 01:44:52;;;;;;;4.18;1.25;;;;;;;14.78;88.10;101875.84;4994034;28;20058;-70
2023/01/05 01:47:27;;;;;;;3.90;1.00;;;;;;;14.87;85.75;101879.50;4972070;28;20052;-69
2023/01/05 01:49:57;;;;;;;4.30;0.82;;;;;;;14.88;86.41;101875.59;4971758;28;20420;-69
2023/01/05 01:52:25;;;;;;;4.37;0.93;;;;;;;15.20;86.19;101876.16;4976886;28;20050;-70
2023/01/05 01:54:53;;;;;;;5.40;1.08;;;;;;;15.31;84.40;101876.72;4995522;28;20042;-69
2023/01/05 01:57:21;;;;;;;8.75;1.50;;;;;;;15.46;84.15;101884.69;4981626;28;20050;-69
2023/01/05 01:59:48;;;;;;;3.80;0.90;;;;;;;15.53;84.30;101885.06;5014476;28;20065;-70
2023/01/05 02:02:16;;;;;;;6.22;1.23;;;;;;;15.44;84.62;101884.19;4981321;28;20050;-69
2023/01/05 02:04:44;;;;;;;7.88;1.33;;;;;;;15.63;84.91;101884.78;4982407;28;20050;-69
2023/01/05 02:07:14;;;;;;;4.10;1.00;;;;;;;15.74;83.49;101889.72;4998270;28;20043;-69
2023/01/05 02:09:42;;;;;;;6.78;1.10;;;;;;;15.54;84.95;101881.13;4982704;28;20054;-70
2023/01/05 02:12:28;;;;;;;4.43;1.08;;;;;;;15.42;84.83;101892.84;4994061;28;20051;-69
2023/01/05 02:15:09;;;;;;;7.88;1.30;;;;;;;15.39;85.08;101882.34;4946616;28;20054;-69
2023/01/05 02:18:01;;;;;;;4.78;0.98;;;;;;;15.62;84.70;101888.72;4997961;28;20432;-69
2023/01/05 02:20:58;;;;;;;4.85;0.77;;;;;;;15.45;86.37;101888.59;4981741;28;20510;-69
2023/01/05 02:23:45;;;;;;;5.57;1.08;;;;;;;15.46;85.82;101890.25;4988561;28;20073;-71
2023/01/05 02:26:32;;;;;;;5.55;1.27;;;;;;;15.19;86.06;101895.91;4996683;28;20058;-69
2023/01/05 02:29:10;;;;;;;7.57;1.08;;;;;;;15.15;86.24;101898.47;4999436;28;20120;-70
2023/01/05 02:32:24;;;;;;;6.13;1.35;;;;;;;15.44;86.88;101898.91;4969697;28;20058;-71
2023/01/05 02:35:05;;;;;;;9.88;2.03;;;;;;;15.27;84.23;101900.72;4922399;29;20055;-69
2023/01/05 02:37:45;;;;;;;7.53;1.38;;;;;;;15.20;82.21;101901.13;4967824;28;20062;-70
2023/01/05 02:40:18;;;;;;;8.20;1.40;;;;;;;14.84;85.39;101911.44;4994177;28;20094;-70
2023/01/05 02:42:48;;;;;;;11.85;1.77;;;;;;;15.15;86.40;101897.69;4997080;28;20046;-70
2023/01/05 02:45:17;;;;;;;8.05;1.83;;;;;;;14.70;82.98;101910.66;4997341;28;20130;-70
2023/01/05 02:47:44;;;;;;;8.18;1.55;;;;;;;14.78;84.64;101906.34;4997171;28;20054;-70
2023/01/05 02:50:21;;;;;;;12.40;2.13;;;;;;;14.57;83.61;101894.91;4980491;28;20050;-70
2023/01/05 02:53:12;;;;;;;14.32;2.20;;;;;;;14.08;83.95;101898.41;4981077;28;20506;-71
2023/01/05 02:56:05;;;;;;;13.13;2.17;;;;;;;14.45;83.11;101894.63;4976369;28;20050;-71
2023/01/05 02:58:46;;;;;;;15.07;2.70;;;;;;;14.40;81.97;101894.72;4976276;28;20077;-69
2023/01/05 03:01:19;;;;;;;13.32;2.42;;;;;;;14.35;81.90;101892.88;4996523;28;20050;-71
2023/01/05 03:03:55;;;;;;;9.00;1.95;;;;;;;14.50;80.87;101897.28;4981309;28;20050;-73
2023/01/05 03:06:45;;;;;;;16.70;2.47;;;;;;;14.24;80.25;101890.59;4996124;28;20062;-70
2023/01/05 03:09:18;;;;;;;14.50;2.95;;;;;;;13.83;80.63;101906.38;4997628;28;20054;-69
2023/01/05 03:14:56;;;;;;;17.60;2.70;;;;;;;14.24;82.13;101891.41;4996266;28;20050;-69
2023/01/05 03:17:29;;;;;;;13.07;2.53;;;;;;;14.76;82.11;101892.78;4995457;28;20054;-69
2023/01/05 03:19:57;;;;;;;18.80;3.22;;;;;;;14.93;79.90;101883.78;4980759;28;20054;-70
2023/01/05 03:37:44;;;;;;;15.13;2.70;;;;;;;15.17;79.79;101893.44;5011927;28;20051;-68
2023/01/05 03:40:17;;;;;;;13.00;2.70;;;;;;;14.80;78.61;101901.31;4980057;28;20050;-68
2023/01/05 03:42:45;;;;;;;16.52;3.03;;;;;;;14.62;80.51;101894.78;4995862;28;20054;-69
2023/01/05 03:45:14;;;;;;;19.33;3.97;;;;;;;14.77;79.13;101901.94;4978975;28;20054;-69
2023/01/05 03:47:42;;;;;;;12.10;1.80;;;;;;;14.30;80.75;101906.84;5004998;28;20067;-70
2023/01/05 03:50:09;;;;;;;13.23;2.05;;;;;;;15.00;81.02;101904.41;4977924;28;20062;-69
2023/01/05 03:52:37;;;;;;;10.38;1.85;;;;;;;15.18;80.72;101894.28;4979359;28;20050;-69
2023/01/05 03:55:04;;;;;;;12.10;2.47;;;;;;;15.17;81.22;101899.00;4997111;28;20050;-69
2023/01/05 03:57:32;;;;;;;10.80;1.83;;;;;;;15.31;79.30;101908.06;4979194;28;20054;-69
2023/01/05 04:00:00;;;;;;;10.40;2.42;;;;;;;14.73;78.72;101909.22;4979597;28;20054;-68
2023/01/05 04:02:28;;;;;;;14.40;2.67;;;;;;;14.24;81.98;101921.09;4978351;28;20054;-70
2023/01/05 04:04:56;;;;;;;16.38;2.95;;;;;;;14.68;84.13;101910.16;4994869;28;20046;-69
2023/01/05 04:07:24;;;;;;;10.93;1.80;;;;;;;14.85;82.89;101917.84;5011323;28;20050;-70
2023/01/05 04:09:52;;;;;;;8.07;1.73;;;;;;;15.32;81.23;101909.72;4997110;28;20067;-70
2023/01/05 04:12:20;;;;;;;12.88;2.28;;;;;;;15.25;80.69;101914.91;5011855;28;20050;-70
2023/01/05 04:14:50;;;;;;;9.23;2.42;;;;;;;15.35;79.79;101914.66;4979131;28;20047;-69
2023/01/05 04:17:17;;;;;;;14.32;2.05;;;;;;;15.56;80.41;101918.56;4994762;28;20058;-70
2023/01/05 04:19:44;;;;;;;10.93;2.13;;;;;;;15.51;78.75;101920.66;4994796;28;20050;-69
2023/01/05 04:22:13;;;;;;;14.15;1.95;;;;;;;15.59;79.35;101914.31;5011429;28;20421;-71
2023/01/05 04:24:42;;;;;;;11.20;1.75;;;;;;;15.38;79.37;101916.78;4995209;28;20059;-70
2023/01/05 04:27:09;;;;;;;11.70;2.20;;;;;;;15.69;79.17;101914.06;5010168;28;20042;-71
2023/01/05 04:29:38;;;;;;;10.82;1.77;;;;;;;15.64;79.31;101915.00;4995640;28;20497;-71
2023/01/05 04:32:05;;;;;;;11.70;2.22;;;;;;;15.64;77.99;101919.75;5011297;28;20058;-70
2023/01/05 04:34:33;;;;;;;10.05;1.63;;;;;;;14.86;78.59;101920.28;4995245;28;20062;-68
2023/01/05 04:37:00;;;;;;;13.48;1.90;;;;;;;14.79;80.90;101916.28;4994760;28;20075;-69
2023/01/05 04:39:30;;;;;;;9.97;2.10;;;;;;;14.99;82.73;101918.59;4996365;28;20054;-70
2023/01/05 04:41:57;;;;;;;10.35;1.83;;;;;;;14.61;81.45;101918.06;4994333;28;20065;-68
2023/01/05 04:44:25;;;;;;;15.50;2.72;;;;;;;14.98;81.39;101920.56;4995520;28;20046;-70
2023/01/05 04:46:54;;;;;;;13.15;1.58;;;;;;;15.33;82.28;101924.41;5010627;28;20050;-70
2023/01/05 04:49:22;;;;;;;10.05;2.42;;;;;;;14.87;82.33;101921.91;4994516;28;20391;-70
2023/01/05 04:51:51;;;;;;;11.48;1.65;;;;;;;14.82;82.34;101912.91;4994765;28;20047;-69
2023/01/05 04:54:21;;;;;;;;;;;;;;;14.18;84.04;101911.22;4979630;28;20430;-70
2023/01/05 04:56:48;;;;;;;11.35;1.63;;;;;;;14.37;84.77;101906.41;4978248;28;19928;-69
2023/01/05 04:59:15;;;;;;;10.35;1.40;;;;;;;14.43;83.18;101905.19;4978845;28;20050;-70
2023/01/05 05:01:43;;;;;;;10.43;1.75;;;;;;;14.87;83.99;101910.03;4978569;28;20058;-69
2023/01/05 05:04:12;;;;;;;8.85;1.60;;;;;;;14.67;82.90;101897.44;5010611;28;20065;-70
2023/01/05 05:06:40;;;;;;;8.25;1.67;;;;;;;14.56;82.66;101905.16;4994294;28;20090;-69
2023/01/05 05:09:07;;;;;;;5.93;1.45;;;;;;;14.70;85.60;101907.91;5011097;28;20054;-70
2023/01/05 05:11:37;;;;;;;10.27;1.30;;;;;;;14.53;82.83;101904.97;5010408;28;20069;-69
2023/01/05 05:14:04;;;;;;;7.63;1.35;;;;;;;14.39;85.32;101909.69;4994808;28;20522;-70
2023/01/05 05:16:31;;;;;;;6.70;1.20;;;;;;;15.02;85.20;101902.16;4994099;28;20042;-70
2023/01/05 05:19:00;;;;;;;5.68;1.20;;;;;;;14.77;82.55;101904.72;5011228;28;20058;-70
2023/01/05 05:21:27;;;;;;;6.72;1.10;;;;;;;15.22;83.00;101896.09;4994256;28;20073;-69
2023/01/05 05:23:55;;;;;;;9.63;1.27;;;;;;;15.32;81.09;101906.13;4994433;28;20061;-70
2023/01/05 05:26:22;;;;;;;7.55;1.55;;;;;;;15.03;82.82;101902.97;5009621;28;20166;-70
2023/01/05 05:28:50;;;;;;;5.57;1.15;;;;;;;15.16;81.76;101902.09;4994878;28;20057;-69
2023/01/05 05:31:18;;;;;;;7.57;1.38;;;;;;;14.65;83.06;101908.84;4982030;28;20053;-69
2023/01/05 05:33:45;;;;;;;7.40;1.10;;;;;;;14.99;84.49;101913.06;5000174;28;20061;-70
2023/01/05 05:36:14;;;;;;;6.00;1.00;;;;;;;15.22;82.43;101907.19;4999232;28;20054;-70
2023/01/05 05:38:41;;;;;;;3.85;1.00;;;;;;;15.41;81.91;101901.50;4982548;28;20054;-70
2023/01/05 05:41:08;;;;;;;9.15;1.25;;;;;;;15.58;80.73;101909.91;5014163;28;20050;-69
2023/01/05 05:43:35;;;;;;;6.03;0.90;;;;;;;15.50;80.36;101914.28;4999833;28;20055;-70
2023/01/05 05:46:03;;;;;;;6.13;1.42;;;;;;;15.55;80.44;101914.13;5013666;28;20061;-70
2023/01/05 05:48:30;;;;;;;4.43;0.98;;;;;;;15.58;80.17;101915.47;4985676;28;20446;-70
2023/01/05 05:50:58;;;;;;;5.85;0.90;;;;;;;15.07;80.13;101915.91;5014096;28;20050;-69
2023/01/05 05:53:25;;;;;;;5.00;0.80;;;;;;;15.17;82.98;101912.03;4999700;28;20061;-70
2023/01/05 05:55:53;;;;;;;4.93;1.13;;;;;;;15.10;83.01;101920.81;4999361;28;20062;-71
2023/01/05 05:58:20;;;;;;;5.55;1.02;;;;;;;14.62;81.89;101919.75;4981826;28;20058;-69
2023/01/05 06:00:47;;;;;;;5.28;1.10;;;;;;;14.97;83.80;101915.31;4998923;28;20053;-68
2023/01/05 06:03:15;;;;;;;8.30;1.30;;;;;;;15.39;82.45;101925.94;4997517;28;20437;-70
2023/01/05 06:05:43;;;;;;;4.50;1.10;;;;;;;15.17;80.62;101931.47;4996495;28;20069;-68
2023/01/05 06:08:10;;;;;;;8.38;1.15;;;;;;;15.24;81.23;101932.69;4998837;28;20065;-69
2023/01/05 06:10:38;;;;;;;8.05;1.25;;;;;;;14.78;83.27;101942.41;4981338;28;20065;-68
2023/01/05 06:13:05;;;;;;;7.07;1.00;;;;;;;15.06;83.71;101935.63;5013937;28;20054;-69
2023/01/05 06:15:32;;;;;;;6.53;1.15;;;;;;;15.06;81.20;101946.75;4998550;28;20046;-70
2023/01/05 06:17:59;;;;;;;8.73;1.73;;;;;;;14.82;83.84;101941.44;4965509;28;20038;-69
2023/01/05 06:20:27;;;;;;;5.22;1.10;;;;;;;14.50;84.02;101958.25;5013959;28;20085;-70
2023/01/05 06:22:54;;;;;;;5.65;1.10;;;;;;;14.76;86.21;101945.50;5014457;28;20058;-71
2023/01/05 06:25:21;;;;;;;8.02;1.40;;;;;;;14.73;82.99;101946.13;4980144;28;20062;-69
2023/01/05 06:27:49;;;;;;;4.82;0.90;;;;;;;14.68;83.30;101950.94;4999037;28;20402;-70
2023/01/05 06:30:16;;;;;;;5.10;0.90;;;;;;;15.05;84.62;101956.19;5013790;28;20058;-69
2023/01/05 06:32:44;;;;;;;5.88;1.27;;;;;;;15.27;82.18;101947.91;4998583;28;20050;-70
2023/01/05 06:35:11;;;;;;;5.38;1.10;;;;;;;14.78;83.88;101942.41;4998751;28;20046;-69
2023/01/05 06:37:38;;;;;;;6.25;1.02;;;;;;;14.78;84.16;101957.09;5012631;28;20046;-68
2023/01/05 06:40:07;;;;;;;4.20;1.10;;;;;;;14.85;84.94;101951.13;4980508;28;20057;-69
2023/01/05 06:42:34;;;;;;;5.35;1.05;;;;;;;15.09;83.35;101954.44;4976520;28;20058;-69
2023/01/05 06:45:03;;;;;;;3.78;0.98;;;;;;;14.96;83.63;101958.88;4978993;28;20047;-69
2023/01/05 06:47:30;;;;;;;4.75;1.15;;;;;;;14.44;85.77;101965.03;5012972;28;20054;-69
2023/01/05 06:49:58;;;;;;;5.43;1.30;;;;;;;14.27;85.56;101970.38;4998977;28;20073;-69
2023/01/05 06:52:25;;;;;;;6.15;1.10;;;;;;;14.52;86.63;101967.91;4980361;28;20058;-70
2023/01/05 06:54:53;;;;;;;6.28;2.10;;;;;;;15.04;85.06;101968.44;4998654;28;20050;-70
2023/01/05 06:57:20;;;;;;;6.22;1.30;;;;;;;14.91;83.48;101967.31;4996079;28;20513;-69
2023/01/05 06:59:47;;;;;;;6.30;1.20;;;;;;;14.62;85.29;101970.47;4977560;28;20074;-70
2023/01/05 07:02:15;;;;;;;4.20;1.20;;;;;;;14.79;84.29;101969.81;5012120;28;20525;-69
2023/01/05 07:04:43;;;;;;;6.90;1.08;;;;;;;14.92;85.80;101968.16;4980928;28;20053;-70
2023/01/05 07:07:14;;;;;;;4.63;1.20;;;;;;;15.20;84.85;101967.75;4997945;28;20621;-69
2023/01/05 07:09:41;;;;;;;4.47;1.30;;;;;;;15.12;85.32;101965.72;4981030;28;20218;-70
2023/01/05 07:12:09;;;;;;;5.82;1.02;;;;;;;14.93;84.08;101969.78;4996708;28;20138;-70
2023/01/05 07:14:37;;;;;;;5.57;1.38;;;;;;;14.64;85.69;101965.41;4998274;28;20050;-69
2023/01/05 07:17:04;;;;;;;5.18;1.10;;;;;;;14.41;89.04;101973.97;4996288;28;20062;-69
2023/01/05 07:19:31;;;;;;;5.10;1.00;;;;;;;14.80;87.39;101978.97;5000617;28;20061;-68
2023/01/05 07:21:59;;;;;;;5.18;0.85;;;;;;;15.09;86.22;101979.41;4996841;28;20058;-69
2023/01/05 07:24:26;;;;;;;5.90;1.30;;;;;;;15.45;84.93;101975.50;4976627;28;20166;-69
2023/01/05 07:26:53;;;;;;;10.43;4.45;;;;;;;15.33;82.41;101974.38;4954467;28;20066;-69
2023/01/05 07:29:21;;;;;;;7.38;1.33;;;;;;;14.77;85.33;101974.06;4960641;28;20051;-68
2023/01/05 07:31:51;;;;;;;8.55;3.45;;;;;;;15.36;85.68;101971.00;4980264;28;20046;-69
2023/01/05 07:34:19;;;;;;;4.93;1.42;;;;;;;14.99;83.67;101966.59;4980032;28;20057;-68
2023/01/05 07:36:48;;;;;;;4.50;1.10;;;;;;;15.22;85.30;101971.03;4993505;28;20053;-68
2023/01/05 07:39:16;;;;;;;4.15;1.50;;;;;;;15.34;83.62;101974.06;4992137;28;20050;-68
2023/01/05 07:41:43;;;;;;;7.55;2.10;;;;;;;15.46;83.52;101973.56;4976258;28;20054;-69
2023/01/05 07:44:10;;;;;;;9.95;3.80;;;;;;;15.53;84.66;101966.41;4977747;28;20058;-70
2023/01/05 07:46:38;;;;;;;6.80;1.98;;;;;;;15.75;83.49;101974.72;4970437;28;20055;-69
2023/01/05 07:49:05;;;;;;;6.45;1.30;;;;;;;16.01;83.17;101966.53;4974028;28;20050;-67
2023/01/05 07:51:33;;;;;;;8.55;4.18;;;;;;;16.07;81.34;101981.94;4977091;28;20073;-69
2023/01/05 07:54:00;;;;;;;6.97;1.13;;;;;;;15.96;82.28;101988.91;4974778;28;20055;-75
2023/01/05 07:56:27;;;;;;;6.00;1.55;;;;;;;16.02;81.72;101984.03;4974175;28;20458;-72
2023/01/05 07:58:55;;;;;;;4.22;1.00;;;;;;;16.08;79.95;101982.75;4979006;28;20051;-71
2023/01/05 08:01:22;;;;;;;6.05;1.30;;;;;;;15.99;80.16;101979.13;4995827;28;20050;-72
2023/01/05 08:03:50;;;;;;;7.43;2.97;;;;;;;15.87;79.27;101973.31;4976453;28;20050;-69
2023/01/05 08:06:18;;;;;;;5.25;1.67;;;;;;;15.91;79.31;101975.16;4992634;28;20553;-71
2023/01/05 08:08:46;;;;;;;6.25;1.73;;;;;;;15.94;79.28;101977.28;4990214;28;20049;-69
2023/01/05 08:11:15;;;;;;;5.15;1.55;;;;;;;16.14;78.30;101973.13;4976820;28;20050;-67
2023/01/05 08:13:58;;;;;;;3.90;1.38;;;;;;;16.04;78.38;101978.97;4970979;28;20042;-63
2023/01/05 08:16:30;;;;;;;9.80;1.52;;;;;;;15.88;79.18;101983.28;4972475;28;20065;-62
2023/01/05 08:18:58;;;;;;;8.65;2.10;;;;;;;16.03;79.41;101982.88;4977286;28;20051;-62
2023/01/05 08:21:25;;;;;;;9.18;1.70;;;;;;;16.09;78.95;101976.06;4979464;28;20666;-63
2023/01/05 08:23:53;;;;;;;6.65;1.48;;;;;;;16.16;78.54;101979.19;4991100;28;20058;-61
2023/01/05 08:26:22;;;;;;;4.57;1.40;;;;;;;16.11;78.79;101985.69;4971757;28;20055;-62
2023/01/05 08:28:51;;;;;;;6.88;1.50;;;;;;;16.19;78.79;101982.16;4989526;28;20047;-62
2023/01/05 08:31:27;;;;;;;4.95;1.50;;;;;;;16.36;78.34;101986.94;4990632;28;20047;-61
2023/01/05 08:33:58;;;;;;;7.28;1.80;;;;;;;16.18;77.76;101985.25;4959115;28;20055;-62
2023/01/05 08:36:26;;;;;;;4.55;1.40;;;;;;;16.11;78.41;101994.03;4973037;28;20055;-62
2023/01/05 08:38:54;;;;;;;10.82;1.50;;;;;;;16.22;78.20;101986.25;4975208;28;20045;-62
2023/01/05 08:41:21;;;;;;;4.93;2.30;;;;;;;16.20;78.45;101989.34;4975261;28;20062;-62
2023/01/05 08:43:50;;;;;;;8.55;4.07;;;;;;;16.31;77.80;101982.38;4978040;28;20061;-62
2023/01/05 08:46:19;;;;;;;5.85;2.17;;;;;;;16.45;77.37;101990.59;4977517;28;20050;-62
2023/01/05 08:48:51;;;;;;;5.57;1.83;;;;;;;16.28;77.60;101984.97;4972985;28;20043;-62
2023/01/05 08:51:19;;;;;;;5.65;2.30;;;;;;;16.18;78.03;101990.81;4959070;28;20050;-62
2023/01/05 08:53:46;;;;;;;7.63;2.58;;;;;;;16.20;77.85;101988.50;4976308;28;20054;-62
2023/01/05 08:56:14;;;;;;;6.90;2.70;;;;;;;16.24;77.80;101990.34;4977648;28;20055;-62
2023/01/05 08:58:41;;;;;;;6.72;1.67;;;;;;;16.39;77.51;101992.69;4961434;28;20073;-62
2023/01/05 09:01:11;;;;;;;10.18;1.52;;;;;;;16.36;77.36;101995.28;4976978;28;20061;-61
2023/01/05 09:03:39;;;;;;;3.50;1.17;;;;;;;16.53;77.07;101998.16;4962726;28;20057;-60
2023/01/05 09:06:08;;;;;;;3.13;1.08;;;;;;;16.38;76.50;101993.84;4975841;28;20055;-62
2023/01/05 09:08:35;;;;;;;3.13;1.13;;;;;;;16.10;77.53;101995.19;4978429;28;20047;-65
2023/01/05 09:11:10;;;;;;;3.63;0.98;;;;;;;16.20;78.12;101992.13;4989606;28;20055;-62
2023/01/05 09:13:38;;;;;;;6.90;1.40;;;;;;;16.31;77.59;101987.94;4987039;28;20061;-61
2023/01/05 09:16:12;;;;;;;5.22;1.27;;;;;;;16.51;76.59;101989.34;4991150;28;20049;-61
2023/01/05 09:18:40;;;;;;;3.85;1.42;;;;;;;16.43;76.36;101990.09;4977106;28;20051;-63
2023/01/05 09:21:08;;;;;;;3.38;1.23;;;;;;;15.90;79.16;101989.38;4961451;28;20498;-61
2023/01/05 09:23:36;;;;;;;3.20;1.27;;;;;;;16.26;78.23;101987.25;4975592;28;20053;-61
2023/01/05 09:26:05;;;;;;;6.63;3.05;;;;;;;16.45;77.37;101994.19;4978909;28;20039;-61
2023/01/05 09:28:35;;;;;;;9.80;5.75;;;;;;;16.43;76.79;102002.03;4988358;28;20098;-61
2023/01/05 09:31:10;;;;;;;7.57;1.67;;;;;;;16.50;76.15;101996.88;4972415;28;20054;-61
2023/01/05 09:33:39;;;;;;;3.80;1.13;;;;;;;16.26;76.74;102003.94;4973547;28;20043;-62
2023/01/05 09:36:07;;;;;;;8.25;1.40;;;;;;;16.44;77.14;102000.88;4974779;28;20072;-61
2023/01/05 09:38:35;;;;;;;2.03;1.05;;;;;;;16.48;76.27;101993.59;4975117;28;20043;-64
2023/01/05 09:41:19;;;;;;;4.22;1.80;;;;;;;16.56;76.43;102006.69;4974752;28;20043;-61
2023/01/05 09:43:50;;;;;;;11.15;6.22;;;;;;;16.61;76.21;101994.59;4972198;28;20051;-61
2023/01/05 09:46:21;;;;;;;3.85;1.20;;;;;;;16.75;75.37;102000.88;4957026;28;20047;-61
2023/01/05 09:48:54;;;;;;;4.53;1.20;;;;;;;16.38;77.02;101998.59;4958930;28;20058;-61
2023/01/05 09:51:22;;;;;;;4.95;1.75;;;;;;;16.47;76.32;101997.53;4992496;28;20051;-61
2023/01/05 09:53:49;;;;;;;4.20;1.60;;;;;;;16.44;76.86;101998.09;4975237;28;20068;-61
2023/01/05 09:56:32;;;;;;;4.30;1.70;;;;;;;16.26;77.74;102009.50;4976865;28;20061;-61
2023/01/05 09:59:25;;;;;;;6.75;1.80;;;;;;;16.25;78.45;102002.31;4976133;28;20050;-61
2023/01/05 10:01:55;;;;;;;3.95;1.63;;;;;;;16.29;77.12;101995.78;4974026;28;20066;-60
2023/01/05 10:04:24;;;;;;;4.75;1.30;;;;;;;16.40;77.33;102007.44;4973640;28;20069;-60
2023/01/05 10:07:06;;;;;;;5.63;1.30;;;;;;;16.18;78.28;102013.06;4977383;28;20055;-62
2023/01/05 10:09:38;;;;;;;4.85;1.10;;;;;;;16.03;79.77;102011.50;4989682;28;20050;-59
2023/01/05 10:15:15;;;;;;;6.70;1.20;;;;;;;16.23;79.53;102012.91;4978826;28;20054;-62
2023/01/05 10:17:43;;;;;;;3.50;1.42;;;;;;;16.07;79.96;102020.84;4958914;28;20051;-62
2023/01/05 10:20:16;;;;;;;4.07;1.92;;;;;;;16.01;79.59;102024.91;4975891;28;20046;-62
2023/01/05 10:22:43;;;;;;;5.28;1.80;;;;;;;15.84;81.23;102021.19;4982203;28;20047;-62
2023/01/05 10:25:28;;;;;;;7.93;3.53;;;;;;;16.17;80.41;102028.91;4977940;28;20058;-61
2023/01/05 10:28:22;;;;;;;7.70;3.85;;;;;;;16.22;80.26;102023.22;4976023;28;20057;-61
2023/01/05 10:31:00;;;;;;;3.88;1.70;;;;;;;15.96;80.67;102015.88;4974651;28;20062;-64
2023/01/05 10:33:37;;;;;;;5.45;1.90;;;;;;;16.10;81.16;102017.44;4980640;28;20062;-63
2023/01/05 10:36:34;;;;;;;5.60;1.13;;;;;;;16.11;80.59;102019.06;4980846;28;20414;-65
2023/01/05 10:39:32;;;;;;;7.40;1.55;;;;;;;15.71;83.87;102015.38;4960596;28;20058;-63
2023/01/05 10:42:23;;;;;;;9.05;1.20;;;;;;;16.30;81.44;102021.63;4995851;28;20057;-63
2023/01/05 10:44:54;;;;;;;9.00;1.10;;;;;;;16.24;80.79;102017.31;4992399;28;20055;-63
2023/01/05 10:47:24;;;;;;;3.83;1.13;;;;;;;15.93;83.19;102002.63;4982335;28;20375;-63
2023/01/05 10:49:52;;;;;;;2.97;1.20;;;;;;;15.63;84.72;102007.81;4964794;28;20049;-64
2023/01/05 10:52:21;;;;;;;4.32;1.50;;;;;;;15.99;83.41;101998.56;4980037;28;20672;-63
2023/01/05 10:54:53;;;;;;;2.35;1.00;;;;;;;16.10;82.99;102006.31;4978043;28;20049;-64
2023/01/05 10:57:32;;;;;;;5.63;2.65;;;;;;;16.22;82.89;102003.75;4997227;28;20042;-62
2023/01/05 11:00:18;;;;;;;8.98;4.03;;;;;;;16.11;82.48;101996.03;4978148;28;20048;-64
2023/01/05 11:02:48;;;;;;;1.80;0.88;;;;;;;15.75;83.61;101994.19;4961322;28;20054;-63
2023/01/05 11:05:26;;;;;;;4.25;1.50;;;;;;;15.77;84.08;101986.34;4979339;28;20058;-63
2023/01/05 11:07:58;;;;;;;4.32;1.10;;;;;;;16.01;83.18;101979.59;4972211;28;20406;-64
2023/01/05 11:10:35;;;;;;;4.05;1.02;;;;;;;16.52;81.48;101975.13;4978027;28;20058;-64
2023/01/05 11:13:17;;;;;;;5.63;1.08;;;;;;;16.44;80.58;101969.50;4996222;28;20058;-64
2023/01/05 11:15:54;;;;;;;4.20;1.27;;;;;;;15.99;82.64;101971.59;4978686;28;20054;-63
2023/01/05 11:18:24;;;;;;;2.45;1.20;;;;;;;16.23;82.69;101960.09;4988444;28;20504;-63
2023/01/05 11:21:10;;;;;;;3.53;1.35;;;;;;;16.61;80.64;101961.22;4975330;28;20055;-63
2023/01/05 11:23:40;;;;;;;4.55;1.98;;;;;;;16.76;79.85;101957.97;4976017;28;20055;-63
2023/01/05 11:26:35;;;;;;;10.05;7.25;;;;;;;16.46;78.96;101956.06;4980034;28;20058;-64
2023/01/05 11:29:08;;;;;;;15.27;8.38;;;;;;;16.30;80.67;101963.22;4979613;28;20051;-64
2023/01/05 11:31:45;;;;;;;13.15;9.68;;;;;;;16.58;80.04;101957.13;4980788;28;20502;-63
2023/01/05 11:34:18;;;;;;;12.07;7.88;;;;;;;16.83;78.54;101952.75;4977928;28;20069;-64
2023/01/05 11:37:01;;;;;;;9.25;4.25;;;;;;;16.93;78.34;101959.97;4978061;28;20039;-63
2023/01/05 11:39:50;;;;;;;17.95;9.20;;;;;;;17.00;77.35;101952.75;4976571;28;20047;-62
2023/01/05 11:42:21;;;;;;;20.88;10.57;;;;;;;16.72;78.02;101940.28;4990399;28;20067;-65
2023/01/05 11:44:57;;;;;;;86.07;39.42;;;;;;;16.92;78.08;101945.22;4977489;28;20054;-63
2023/01/05 11:47:26;;;;;;;66.43;34.47;;;;;;;16.96;77.46;101943.44;4993002;28;20074;-65
2023/01/05 11:49:57;;;;;;;39.85;20.40;;;;;;;17.19;77.09;101942.13;4976146;28;20047;-63
2023/01/05 11:52:33;;;;;;;30.38;20.35;;;;;;;17.23;76.66;101945.88;4978428;28;20490;-63
2023/01/05 11:55:19;;;;;;;11.57;6.88;;;;;;;16.78;77.29;101948.16;4991621;28;20491;-62
2023/01/05 11:57:47;;;;;;;9.70;4.65;;;;;;;16.65;78.29;101937.16;4976075;28;20132;-63
2023/01/05 12:00:23;;;;;;;8.40;4.25;;;;;;;16.95;77.78;101933.44;4975418;28;20050;-59
2023/01/05 12:03:09;;;;;;;10.55;5.78;;;;;;;17.05;76.85;101930.31;4995562;28;20071;-61
2023/01/05 12:05:37;;;;;;;10.18;4.57;;;;;;;17.12;76.38;101930.66;4973393;28;20061;-58
2023/01/05 12:08:09;;;;;;;10.10;3.58;;;;;;;17.04;76.92;101931.47;4975127;28;20645;-60
2023/01/05 12:11:05;;;;;;;8.02;3.25;;;;;;;16.76;77.75;101928.19;5008352;28;20054;-58
2023/01/05 12:13:52;;;;;;;4.68;2.00;;;;;;;16.76;77.84;101925.41;4967795;28;20065;-57
2023/01/05 12:16:45;;;;;;;4.05;1.52;;;;;;;16.95;76.38;101921.47;4978875;28;20066;-58